createdAt,value
2022-12-01T00:01:17.804Z,19.45
2022-12-01T00:03:45.410Z,19.58
2022-12-01T00:06:15.914Z,19.13
2022-12-01T00:09:06.875Z,19.35
2022-12-01T00:11:35.203Z,16.87
2022-12-01T00:14:02.899Z,15.80
2022-12-01T00:16:30.350Z,17.40
2022-12-01T00:18:58.027Z,17.87
2022-12-01T00:21:25.634Z,17.83
2022-12-01T00:23:54.499Z,14.53
2022-12-01T00:26:22.376Z,16.33
2022-12-01T00:28:53.299Z,17.97
2022-12-01T00:31:20.906Z,17.93
2022-12-01T00:33:50.080Z,19.23
2022-12-01T00:36:17.424Z,18.03
2022-12-01T00:38:44.789Z,19.77
2022-12-01T00:41:12.443Z,20.00
2022-12-01T00:43:40.436Z,17.27
2022-12-01T00:46:07.844Z,17.40
2022-12-01T00:48:35.518Z,20.60
2022-12-01T00:51:03.191Z,18.17
2022-12-01T00:53:30.539Z,16.27
2022-12-01T00:55:58.160Z,18.67
2022-12-01T00:58:25.581Z,19.23
2022-12-01T01:01:02.344Z,19.57
2022-12-01T01:03:30.242Z,17.23
2022-12-01T01:06:03.458Z,18.43
2022-12-01T01:08:31.063Z,17.43
2022-12-01T01:10:59.212Z,18.33
2022-12-01T01:13:26.549Z,21.27
2022-12-01T01:16:01.638Z,19.77
2022-12-01T01:18:29.088Z,19.90
2022-12-01T01:20:58.226Z,22.50
2022-12-01T01:23:25.573Z,18.47
2022-12-01T01:25:52.952Z,21.20
2022-12-01T01:28:20.555Z,17.57
2022-12-01T01:30:47.931Z,17.53
2022-12-01T01:33:15.308Z,17.00
2022-12-01T01:35:42.908Z,18.57
2022-12-01T01:38:10.750Z,19.20
2022-12-01T01:40:45.105Z,19.13
2022-12-01T01:43:17.049Z,18.67
2022-12-01T01:45:44.423Z,18.73
2022-12-01T01:48:11.993Z,18.37
2022-12-01T01:50:39.578Z,19.63
2022-12-01T01:53:11.673Z,18.03
2022-12-01T01:55:39.007Z,20.43
2022-12-01T01:58:07.805Z,22.60
2022-12-01T02:00:35.151Z,20.17
2022-12-01T02:03:02.783Z,21.73
2022-12-01T02:05:32.331Z,20.37
2022-12-01T02:08:01.377Z,21.27
2022-12-01T02:10:58.538Z,21.23
2022-12-01T02:13:38.084Z,18.87
2022-12-01T02:16:19.442Z,20.63
2022-12-01T02:18:46.597Z,20.13
2022-12-01T02:21:14.070Z,26.40
2022-12-01T02:23:59.879Z,21.90
2022-12-01T02:27:01.623Z,24.33
2022-12-01T02:29:31.859Z,23.07
2022-12-01T02:32:08.611Z,24.37
2022-12-01T02:34:40.310Z,22.33
2022-12-01T02:37:44.776Z,23.50
2022-12-01T02:40:20.814Z,26.80
2022-12-01T02:42:53.969Z,22.60
2022-12-01T02:45:52.190Z,20.67
2022-12-01T02:48:26.543Z,21.97
2022-12-01T02:50:53.943Z,20.53
2022-12-01T02:53:21.616Z,23.50
2022-12-01T02:55:53.026Z,22.53
2022-12-01T02:58:20.384Z,21.40
2022-12-01T03:01:05.851Z,20.07
2022-12-01T03:04:02.889Z,17.40
2022-12-01T03:06:40.420Z,18.47
2022-12-01T03:09:13.031Z,19.77
2022-12-01T03:12:06.579Z,18.53
2022-12-01T03:14:52.753Z,19.77
2022-12-01T03:17:22.752Z,19.80
2022-12-01T03:19:55.804Z,18.80
2022-12-01T03:22:26.084Z,18.03
2022-12-01T03:24:54.039Z,18.13
2022-12-01T03:27:24.340Z,18.50
2022-12-01T03:29:52.027Z,17.60
2022-12-01T03:32:32.314Z,17.77
2022-12-01T03:35:05.407Z,21.63
2022-12-01T03:37:38.796Z,18.90
2022-12-01T03:40:08.109Z,16.03
2022-12-01T03:42:38.495Z,17.20
2022-12-01T03:45:12.422Z,17.53
2022-12-01T03:47:40.447Z,19.90
2022-12-01T03:50:09.830Z,18.03
2022-12-01T03:52:52.369Z,19.33
2022-12-01T03:55:21.949Z,16.83
2022-12-01T03:58:08.382Z,20.37
2022-12-01T04:00:36.039Z,18.93
2022-12-01T04:03:04.168Z,18.77
2022-12-01T04:05:32.606Z,17.77
2022-12-01T04:08:00.225Z,17.17
2022-12-01T04:10:27.970Z,18.00
2022-12-01T04:12:59.324Z,19.90
2022-12-01T04:15:26.925Z,17.90
2022-12-01T04:17:54.675Z,18.63
2022-12-01T04:20:22.864Z,15.77
2022-12-01T04:22:50.220Z,18.73
2022-12-01T04:25:17.901Z,15.43
2022-12-01T04:27:45.244Z,18.37
2022-12-01T04:30:13.156Z,15.47
2022-12-01T04:32:41.554Z,16.17
2022-12-01T04:35:09.668Z,15.67
2022-12-01T04:37:37.099Z,18.17
2022-12-01T04:40:05.795Z,17.07
2022-12-01T04:42:33.167Z,18.33
2022-12-01T04:45:00.485Z,16.67
2022-12-01T04:47:28.095Z,18.03
2022-12-01T04:49:55.437Z,18.53
2022-12-01T04:52:22.752Z,19.83
2022-12-01T04:54:50.344Z,23.83
2022-12-01T04:57:17.659Z,27.27
2022-12-01T04:59:44.969Z,20.73
2022-12-01T05:02:12.663Z,17.53
2022-12-01T05:04:41.666Z,21.57
2022-12-01T05:07:09.069Z,19.97
2022-12-01T05:09:36.695Z,18.27
2022-12-01T05:12:04.269Z,18.30
2022-12-01T05:14:31.630Z,19.57
2022-12-01T05:17:00.495Z,20.07
2022-12-01T05:19:46.713Z,21.50
2022-12-01T05:22:14.584Z,19.83
2022-12-01T05:24:41.937Z,25.30
2022-12-01T05:27:09.278Z,24.27
2022-12-01T05:29:36.913Z,23.43
2022-12-01T05:32:04.935Z,23.00
2022-12-01T05:34:32.386Z,23.57
2022-12-01T05:36:59.985Z,20.53
2022-12-01T05:39:27.357Z,20.47
2022-12-01T05:41:54.703Z,21.20
2022-12-01T05:44:22.290Z,21.17
2022-12-01T05:46:49.717Z,21.27
2022-12-01T05:49:17.060Z,21.53
2022-12-01T05:51:44.669Z,17.90
2022-12-01T05:54:12.064Z,21.87
2022-12-01T05:56:39.376Z,20.80
2022-12-01T05:59:06.951Z,24.00
2022-12-01T06:01:34.334Z,24.13
2022-12-01T06:04:02.126Z,23.30
2022-12-01T06:06:29.586Z,24.43
2022-12-01T06:08:56.971Z,23.00
2022-12-01T06:11:24.577Z,24.90
2022-12-01T06:13:51.900Z,23.00
2022-12-01T06:16:19.262Z,26.73
2022-12-01T06:18:46.919Z,27.67
2022-12-01T06:21:14.572Z,20.77
2022-12-01T06:23:41.908Z,27.07
2022-12-01T06:26:09.523Z,24.10
2022-12-01T06:28:36.886Z,22.87
2022-12-01T06:31:04.265Z,23.80
2022-12-01T06:33:32.052Z,25.33
2022-12-01T06:35:59.983Z,25.70
2022-12-01T06:38:30.266Z,22.33
2022-12-01T06:41:00.436Z,26.20
2022-12-01T06:43:27.805Z,27.60
2022-12-01T06:46:00.871Z,32.57
2022-12-01T06:48:29.725Z,36.83
2022-12-01T06:51:00.349Z,39.77
2022-12-01T06:53:28.613Z,40.30
2022-12-01T06:56:03.089Z,44.30
2022-12-01T06:58:30.800Z,42.77
2022-12-01T07:00:59.313Z,39.27
2022-12-01T07:03:26.901Z,35.50
2022-12-01T07:06:00.747Z,26.03
2022-12-01T07:08:28.905Z,27.63
2022-12-01T07:11:00.706Z,27.80
2022-12-01T07:13:33.049Z,28.13
2022-12-01T07:16:02.998Z,28.50
2022-12-01T07:18:31.122Z,44.47
2022-12-01T07:21:07.198Z,78.13
2022-12-01T07:23:35.195Z,58.03
2022-12-01T07:26:03.062Z,60.60
2022-12-01T07:28:30.516Z,86.37
2022-12-01T07:31:08.719Z,50.07
2022-12-01T07:33:36.090Z,46.00
2022-12-01T07:36:05.397Z,44.70
2022-12-01T07:38:32.919Z,41.90
2022-12-01T07:41:10.125Z,45.47
2022-12-01T07:43:37.920Z,41.67
2022-12-01T07:46:15.753Z,40.10
2022-12-01T07:48:46.503Z,68.63
2022-12-01T07:51:16.599Z,59.13
2022-12-01T07:53:45.089Z,52.80
2022-12-01T07:56:12.756Z,49.87
2022-12-01T07:58:40.185Z,40.87
2022-12-01T08:01:09.040Z,41.27
2022-12-01T08:03:36.782Z,41.60
2022-12-01T08:06:04.648Z,38.83
2022-12-01T08:08:33.327Z,34.90
2022-12-01T08:11:06.124Z,32.23
2022-12-01T08:13:33.550Z,31.63
2022-12-01T08:16:04.724Z,30.27
2022-12-01T08:18:34.527Z,32.43
2022-12-01T08:21:02.175Z,32.63
2022-12-01T08:23:29.562Z,34.47
2022-12-01T08:26:03.251Z,30.03
2022-12-01T08:28:31.035Z,24.57
2022-12-01T08:30:58.541Z,26.90
2022-12-01T08:33:25.901Z,29.67
2022-12-01T08:35:53.534Z,27.43
2022-12-01T08:38:20.858Z,30.97
2022-12-01T08:40:48.239Z,27.53
2022-12-01T08:43:34.669Z,26.47
2022-12-01T08:46:03.272Z,24.30
2022-12-01T08:48:33.405Z,30.77
2022-12-01T08:51:06.551Z,32.30
2022-12-01T08:53:34.852Z,24.43
2022-12-01T08:56:07.250Z,23.87
2022-12-01T08:58:36.009Z,25.43
2022-12-01T09:01:04.603Z,20.47
2022-12-01T09:03:32.098Z,22.07
2022-12-01T09:06:16.437Z,23.67
2022-12-01T09:08:43.876Z,23.27
2022-12-01T09:11:16.130Z,21.03
2022-12-01T09:13:43.672Z,23.30
2022-12-01T09:16:13.509Z,25.27
2022-12-01T09:18:41.342Z,23.83
2022-12-01T09:21:16.831Z,23.77
2022-12-01T09:23:44.492Z,23.90
2022-12-01T09:26:13.925Z,23.65
2022-12-01T09:28:41.492Z,18.77
2022-12-01T09:31:10.757Z,19.80
2022-12-01T09:33:38.520Z,17.17
2022-12-01T09:36:07.090Z,21.93
2022-12-01T09:38:35.245Z,17.83
2022-12-01T09:41:05.657Z,18.43
2022-12-01T09:43:45.821Z,18.80
2022-12-01T09:46:22.834Z,19.10
2022-12-01T09:48:51.712Z,20.00
2022-12-01T09:51:21.136Z,18.07
2022-12-01T09:53:54.644Z,17.53
2022-12-01T09:56:24.634Z,19.57
2022-12-01T09:59:02.878Z,18.37
2022-12-01T10:01:37.858Z,19.00
2022-12-01T10:04:21.593Z,18.67
2022-12-01T10:06:52.946Z,18.80
2022-12-01T10:09:36.487Z,17.37
2022-12-01T10:12:15.081Z,16.57
2022-12-01T10:14:44.787Z,19.07
2022-12-01T10:17:59.879Z,17.67
2022-12-01T10:20:33.302Z,16.23
2022-12-01T10:23:08.339Z,21.00
2022-12-01T10:25:57.973Z,19.17
2022-12-01T10:28:43.687Z,18.27
2022-12-01T10:31:35.924Z,17.00
2022-12-01T10:34:13.962Z,20.55
2022-12-01T10:36:41.605Z,15.97
2022-12-01T10:39:23.919Z,17.10
2022-12-01T10:41:51.552Z,18.57
2022-12-01T10:44:18.976Z,20.47
2022-12-01T10:46:52.448Z,17.60
2022-12-01T10:49:20.168Z,20.73
2022-12-01T10:51:57.400Z,17.13
2022-12-01T10:54:33.517Z,19.30
2022-12-01T10:57:01.400Z,18.42
2022-12-01T10:59:36.439Z,19.10
2022-12-01T11:02:05.419Z,24.07
2022-12-01T11:04:45.133Z,17.73
2022-12-01T11:07:17.562Z,20.02
2022-12-01T11:09:45.809Z,19.50
2022-12-01T11:12:15.513Z,20.00
2022-12-01T11:14:43.817Z,20.77
2022-12-01T11:17:30.933Z,23.58
2022-12-01T11:19:59.012Z,19.67
2022-12-01T11:22:30.853Z,17.90
2022-12-01T11:25:03.265Z,19.87
2022-12-01T11:27:50.599Z,22.48
2022-12-01T11:30:25.959Z,20.92
2022-12-01T11:33:01.652Z,26.23
2022-12-01T11:35:33.538Z,21.73
2022-12-01T11:40:52.558Z,22.15
2022-12-01T11:43:29.895Z,21.42
2022-12-01T11:45:58.871Z,18.48
2022-12-01T11:48:28.691Z,25.60
2022-12-01T11:51:37.208Z,26.08
2022-12-01T11:54:20.208Z,19.63
2022-12-01T11:56:56.136Z,25.35
2022-12-01T11:59:36.224Z,25.77
2022-12-01T12:02:25.983Z,23.65
2022-12-01T12:05:20.116Z,22.70
2022-12-01T12:08:09.357Z,24.20
2022-12-01T12:10:57.088Z,22.37
2022-12-01T12:13:40.490Z,23.03
2022-12-01T12:16:28.886Z,20.55
2022-12-01T12:19:33.814Z,24.07
2022-12-01T12:22:14.159Z,22.77
2022-12-01T12:25:02.711Z,22.83
2022-12-01T12:27:48.603Z,23.02
2022-12-01T12:30:21.813Z,20.15
2022-12-01T12:33:09.865Z,20.52
2022-12-01T12:36:12.013Z,18.80
2022-12-01T12:39:17.227Z,19.48
2022-12-01T12:42:20.091Z,20.23
2022-12-01T12:44:52.875Z,31.90
2022-12-01T12:47:38.156Z,22.62
2022-12-01T12:50:46.821Z,19.80
2022-12-01T12:53:22.079Z,25.50
2022-12-01T12:55:51.322Z,21.75
2022-12-01T12:58:36.416Z,20.75
2022-12-01T13:01:26.381Z,21.35
2022-12-01T13:04:14.483Z,17.58
2022-12-01T13:06:45.884Z,26.00
2022-12-01T13:09:20.950Z,20.75
2022-12-01T13:12:16.026Z,21.35
2022-12-01T13:14:48.962Z,28.62
2022-12-01T13:17:22.507Z,23.65
2022-12-01T13:19:49.971Z,22.48
2022-12-01T13:22:18.931Z,37.20
2022-12-01T13:24:46.305Z,34.00
2022-12-01T13:27:17.649Z,28.57
2022-12-01T13:29:49.682Z,25.37
2022-12-01T13:32:40.412Z,23.65
2022-12-01T13:35:21.697Z,22.23
2022-12-01T13:37:49.052Z,25.48
2022-12-01T13:40:29.633Z,30.07
2022-12-01T13:43:05.489Z,27.55
2022-12-01T13:45:37.098Z,33.25
2022-12-01T13:48:05.214Z,25.35
2022-12-01T13:50:45.998Z,24.35
2022-12-01T13:53:19.362Z,28.60
2022-12-01T13:56:00.465Z,29.48
2022-12-01T13:58:34.216Z,27.40
2022-12-01T14:01:20.603Z,27.62
2022-12-01T14:04:22.367Z,27.08
2022-12-01T14:06:50.187Z,24.23
2022-12-01T14:09:32.089Z,26.23
2022-12-01T14:12:01.304Z,30.35
2022-12-01T14:14:34.638Z,27.62
2022-12-01T14:17:03.237Z,20.60
2022-12-01T14:19:46.086Z,27.52
2022-12-01T14:22:35.106Z,23.30
2022-12-01T14:25:06.048Z,28.90
2022-12-01T14:27:42.274Z,22.60
2022-12-01T14:30:41.073Z,22.98
2022-12-01T14:33:49.132Z,26.67
2022-12-01T14:36:49.189Z,23.62
2022-12-01T14:39:31.275Z,21.70
2022-12-01T14:42:11.420Z,24.77
2022-12-01T14:44:43.893Z,29.12
2022-12-01T14:47:11.375Z,24.95
2022-12-01T14:49:55.720Z,24.87
2022-12-01T14:52:26.295Z,30.42
2022-12-01T14:55:01.622Z,32.97
2022-12-01T14:57:32.272Z,36.80
2022-12-01T15:00:11.014Z,36.70
2022-12-01T15:03:09.266Z,47.47
2022-12-01T15:05:43.456Z,35.20
2022-12-01T15:08:45.704Z,43.92
2022-12-01T15:11:23.289Z,35.55
2022-12-01T15:13:54.810Z,38.15
2022-12-01T15:16:24.029Z,38.13
2022-12-01T15:18:52.028Z,42.57
2022-12-01T15:21:26.975Z,35.05
2022-12-01T15:24:01.335Z,49.97
2022-12-01T15:26:45.977Z,42.10
2022-12-01T15:29:20.570Z,35.93
2022-12-01T15:31:51.238Z,43.03
2022-12-01T15:34:25.075Z,42.83
2022-12-01T15:36:53.238Z,33.23
2022-12-01T15:39:33.950Z,29.95
2022-12-01T15:42:25.300Z,38.57
2022-12-01T15:45:19.621Z,30.90
2022-12-01T15:47:49.081Z,32.58
2022-12-01T15:50:31.434Z,34.55
2022-12-01T15:53:28.902Z,32.63
2022-12-01T15:55:59.184Z,27.70
2022-12-01T15:58:30.296Z,49.10
2022-12-01T16:01:04.765Z,39.93
2022-12-01T16:03:47.058Z,34.90
2022-12-01T16:06:14.427Z,29.53
2022-12-01T16:08:42.103Z,38.23
2022-12-01T16:11:16.821Z,38.30
2022-12-01T16:13:56.351Z,35.22
2022-12-01T16:16:36.844Z,38.65
2022-12-01T16:19:07.341Z,42.93
2022-12-01T16:21:53.826Z,42.45
2022-12-01T16:24:27.522Z,45.50
2022-12-01T16:27:00.230Z,46.70
2022-12-01T16:29:29.306Z,46.35
2022-12-01T16:32:19.225Z,37.80
2022-12-01T16:34:47.405Z,46.30
2022-12-01T16:37:14.973Z,39.47
2022-12-01T16:39:42.433Z,39.60
2022-12-01T16:42:12.467Z,42.57
2022-12-01T16:44:40.697Z,73.37
2022-12-01T16:47:13.900Z,60.63
2022-12-01T16:49:41.534Z,71.63
2022-12-01T16:52:42.576Z,56.47
2022-12-01T16:54:56.697Z,52.37
2022-12-01T16:57:24.117Z,48.97
2022-12-01T16:59:51.455Z,43.53
2022-12-01T17:02:19.093Z,44.53
2022-12-01T17:04:46.497Z,41.73
2022-12-01T17:07:13.849Z,47.43
2022-12-01T17:09:41.516Z,42.23
2022-12-01T17:12:08.867Z,37.07
2022-12-01T17:14:38.096Z,34.53
2022-12-01T17:17:05.870Z,35.87
2022-12-01T17:19:33.207Z,31.60
2022-12-01T17:22:00.552Z,32.00
2022-12-01T17:24:28.225Z,38.47
2022-12-01T17:26:55.576Z,32.67
2022-12-01T17:29:22.899Z,33.67
2022-12-01T17:31:50.519Z,29.50
2022-12-01T17:34:17.899Z,30.27
2022-12-01T17:36:45.384Z,36.57
2022-12-01T17:39:13.096Z,36.63
2022-12-01T17:41:42.141Z,31.27
2022-12-01T17:44:09.519Z,25.20
2022-12-01T17:46:38.522Z,33.77
2022-12-01T17:49:09.475Z,28.40
2022-12-01T17:51:37.160Z,60.83
2022-12-01T17:54:04.869Z,49.33
2022-12-01T17:56:32.284Z,41.17
2022-12-01T17:58:59.893Z,41.40
2022-12-01T18:01:30.369Z,45.23
2022-12-01T18:03:59.037Z,39.60
2022-12-01T18:06:26.915Z,36.63
2022-12-01T18:08:54.247Z,32.17
2022-12-01T18:11:22.895Z,39.60
2022-12-01T18:13:50.535Z,33.10
2022-12-01T18:16:25.042Z,30.27
2022-12-01T18:18:52.930Z,27.80
2022-12-01T18:21:21.183Z,28.23
2022-12-01T18:23:58.160Z,31.97
2022-12-01T18:26:26.077Z,24.80
2022-12-01T18:28:54.838Z,38.20
2022-12-01T18:31:22.356Z,28.60
2022-12-01T18:33:50.141Z,23.67
2022-12-01T18:36:19.860Z,24.70
2022-12-01T18:38:47.456Z,24.27
2022-12-01T18:41:15.557Z,27.60
2022-12-01T18:43:42.961Z,32.20
2022-12-01T18:46:13.913Z,29.77
2022-12-01T18:48:48.656Z,27.80
2022-12-01T18:51:16.256Z,24.10
2022-12-01T18:53:45.431Z,24.97
2022-12-01T18:56:15.054Z,23.07
2022-12-01T18:58:42.855Z,25.53
2022-12-01T19:01:21.526Z,23.93
2022-12-01T19:03:49.032Z,23.27
2022-12-01T19:06:17.103Z,25.33
2022-12-01T19:08:47.050Z,25.07
2022-12-01T19:11:16.340Z,23.20
2022-12-01T19:13:44.041Z,29.37
2022-12-01T19:16:18.423Z,30.17
2022-12-01T19:18:46.270Z,36.10
2022-12-01T19:21:15.233Z,23.90
2022-12-01T19:23:42.852Z,24.20
2022-12-01T19:26:11.956Z,28.83
2022-12-01T19:28:42.128Z,37.17
2022-12-01T19:31:11.325Z,35.17
2022-12-01T19:33:38.773Z,33.90
2022-12-01T19:36:07.651Z,26.30
2022-12-01T19:38:35.319Z,27.97
2022-12-01T19:41:02.759Z,24.97
2022-12-01T19:43:30.264Z,27.23
2022-12-01T19:45:57.986Z,27.60
2022-12-01T19:48:25.416Z,35.47
2022-12-01T19:50:52.737Z,32.27
2022-12-01T19:53:20.373Z,34.93
2022-12-01T19:55:47.714Z,46.20
2022-12-01T19:58:15.057Z,49.13
2022-12-01T20:00:42.654Z,36.30
2022-12-01T20:03:10.287Z,50.97
2022-12-01T20:05:37.657Z,56.43
2022-12-01T20:08:05.107Z,48.03
2022-12-01T20:10:33.597Z,37.33
2022-12-01T20:13:01.113Z,35.90
2022-12-01T20:15:28.571Z,35.73
2022-12-01T20:17:56.248Z,34.10
2022-12-01T20:20:23.632Z,32.60
2022-12-01T20:22:50.982Z,28.10
2022-12-01T20:25:18.820Z,28.57
2022-12-01T20:27:46.149Z,26.70
2022-12-01T20:30:14.093Z,29.07
2022-12-01T20:32:41.824Z,29.70
2022-12-01T20:35:11.938Z,40.00
2022-12-01T20:37:39.663Z,27.17
2022-12-01T20:40:07.724Z,33.03
2022-12-01T20:42:36.846Z,47.90
2022-12-01T20:45:04.698Z,43.63
2022-12-01T20:47:36.589Z,32.67
2022-12-01T20:50:05.380Z,31.73
2022-12-01T20:52:33.008Z,30.87
2022-12-01T20:55:00.423Z,30.23
2022-12-01T20:57:27.962Z,31.50
2022-12-01T20:59:55.557Z,34.50
2022-12-01T21:02:23.057Z,28.27
2022-12-01T21:04:52.245Z,26.83
2022-12-01T21:07:21.696Z,34.33
2022-12-01T21:09:49.290Z,29.30
2022-12-01T21:12:35.454Z,29.33
2022-12-01T21:18:09.062Z,40.00
2022-12-01T21:20:40.363Z,31.20
2022-12-01T21:23:12.993Z,37.07
2022-12-01T21:25:41.516Z,34.70
2022-12-01T21:28:19.060Z,33.90
2022-12-01T21:30:47.623Z,36.20
2022-12-01T21:33:23.308Z,38.63
2022-12-01T21:35:51.965Z,34.63
2022-12-01T21:38:22.075Z,34.63
2022-12-01T21:40:49.931Z,30.33
2022-12-01T21:43:22.645Z,31.67
2022-12-01T21:45:58.450Z,32.83
2022-12-01T21:48:27.690Z,31.37
2022-12-01T21:51:01.915Z,31.60
2022-12-01T21:53:37.118Z,35.90
2022-12-01T21:56:04.588Z,35.60
2022-12-01T21:58:36.948Z,34.90
2022-12-01T22:01:14.851Z,37.63
2022-12-01T22:03:45.881Z,37.77
2022-12-01T22:06:29.657Z,39.27
2022-12-01T22:09:01.390Z,38.17
2022-12-01T22:11:29.749Z,36.73
2022-12-01T22:14:11.261Z,39.63
2022-12-01T22:16:51.401Z,38.43
2022-12-01T22:19:35.527Z,39.77
2022-12-01T22:22:09.229Z,34.50
2022-12-01T22:24:43.023Z,37.60
2022-12-01T22:27:31.801Z,35.77
2022-12-01T22:30:03.291Z,38.37
2022-12-01T22:32:35.488Z,38.77
2022-12-01T22:35:28.171Z,36.47
2022-12-01T22:38:08.643Z,41.90
2022-12-01T22:40:43.375Z,36.80
2022-12-01T22:43:16.803Z,37.17
2022-12-01T22:46:00.088Z,36.40
2022-12-01T22:48:27.812Z,35.50
2022-12-01T22:50:55.154Z,34.30
2022-12-01T22:53:29.104Z,36.27
2022-12-01T22:55:57.640Z,44.23
2022-12-01T22:58:28.591Z,40.33
2022-12-01T23:00:57.979Z,43.33
2022-12-01T23:03:26.159Z,39.10
2022-12-01T23:05:55.833Z,39.93
2022-12-01T23:08:23.563Z,35.93
2022-12-01T23:10:51.664Z,45.67
2022-12-01T23:13:21.653Z,39.03
2022-12-01T23:15:50.828Z,42.70
2022-12-01T23:18:26.959Z,36.50
2022-12-01T23:20:58.152Z,43.75
2022-12-01T23:23:27.050Z,43.47
2022-12-01T23:25:54.523Z,32.47
2022-12-01T23:28:21.999Z,35.90
2022-12-01T23:30:51.598Z,37.73
2022-12-01T23:33:26.184Z,32.47
2022-12-01T23:36:08.862Z,36.17
2022-12-01T23:38:41.096Z,31.67
2022-12-01T23:41:39.181Z,39.43
2022-12-01T23:44:23.885Z,37.37
2022-12-01T23:46:53.687Z,36.77
2022-12-01T23:49:24.366Z,31.20
2022-12-01T23:51:53.183Z,32.63
2022-12-01T23:54:34.144Z,33.47
2022-12-01T23:57:03.182Z,34.93
2022-12-01T23:59:30.554Z,35.53
